Orbital elements of METEOR 2-5 DEB
| Launched | 30 October 1979 |
| Flight ended | – |
| Launch site | Plesetsk Missile and Space Complex, Russia |
| Owner | Commonwealth of Independent States (former USSR) |
| NORAD ID | 38280 |
| Date fetched |
Epoch osculation |
Inc. [°] |
Ecc. | RA asc node [hr] |
Arg Peri. [°] |
Mean anom [°] |
Mean motion [rev/day] |
Abs. mag |
| Date fetched |
Epoch osculation |
Inc. [°] |
Ecc. | RA asc node [hr] |
Arg Peri. [°] |
Mean anom [°] |
Mean motion [rev/day] |
Abs. mag |
| 2026 May 09 17:57 | 2026 May 05 09:14:09 | 81.1853 | 0.00109 | 9.5965 | 131.8965 | 228.3161 | 14.47104 | – |
| 2026 May 08 17:57 | 2026 May 05 09:14:09 | 81.1853 | 0.00109 | 9.5965 | 131.8965 | 228.3161 | 14.47104 | – |
| 2026 May 07 17:58 | 2026 May 05 09:14:09 | 81.1853 | 0.00109 | 9.5965 | 131.8965 | 228.3161 | 14.47104 | – |
| 2026 May 06 17:57 | 2026 May 05 09:14:09 | 81.1853 | 0.00109 | 9.5965 | 131.8965 | 228.3161 | 14.47104 | – |
| 2026 May 05 17:57 | 2026 May 05 09:14:09 | 81.1853 | 0.00109 | 9.5965 | 131.8965 | 228.3161 | 14.47104 | – |
| 2026 May 04 17:57 | 2026 Apr 28 19:34:59 | 81.1861 | 0.00109 | 10.0522 | 145.6570 | 228.3161 | 14.47104 | – |
| 2026 May 03 17:57 | 2026 Apr 28 19:34:59 | 81.1861 | 0.00109 | 10.0522 | 145.6570 | 228.3161 | 14.47104 | – |
| 2026 May 02 17:57 | 2026 Apr 28 19:34:59 | 81.1861 | 0.00109 | 10.0522 | 145.6570 | 228.3161 | 14.47104 | – |
| 2026 May 01 17:56 | 2026 Apr 28 19:34:59 | 81.1861 | 0.00109 | 10.0522 | 145.6570 | 228.3161 | 14.47104 | – |
| 2026 Apr 30 17:56 | 2026 Apr 28 19:34:59 | 81.1861 | 0.00109 | 10.0522 | 145.6570 | 228.3161 | 14.47104 | – |
| 2026 Apr 29 17:57 | 2026 Apr 22 02:35:59 | 81.1863 | 0.00107 | 10.5173 | 160.5886 | 228.3161 | 14.47104 | – |
| 2026 Apr 28 17:56 | 2026 Apr 22 02:35:59 | 81.1863 | 0.00107 | 10.5173 | 160.5886 | 228.3161 | 14.47104 | – |
| 2026 Apr 27 17:58 | 2026 Apr 22 02:35:59 | 81.1863 | 0.00107 | 10.5173 | 160.5886 | 228.3161 | 14.47104 | – |
| 2026 Apr 26 17:58 | 2026 Apr 22 02:35:59 | 81.1863 | 0.00107 | 10.5173 | 160.5886 | 228.3161 | 14.47104 | – |
| 2026 Apr 25 17:58 | 2026 Apr 22 02:35:59 | 81.1863 | 0.00107 | 10.5173 | 160.5886 | 228.3161 | 14.47104 | – |
| 2026 Apr 24 17:59 | 2026 Apr 22 02:35:59 | 81.1863 | 0.00107 | 10.5173 | 160.5886 | 228.3161 | 14.47104 | – |
| 2026 Apr 23 17:57 | 2026 Apr 15 21:13:35 | 81.1855 | 0.00104 | 10.9488 | 174.8639 | 228.3161 | 14.47104 | – |
| 2026 Apr 22 17:57 | 2026 Apr 15 21:13:35 | 81.1855 | 0.00104 | 10.9488 | 174.8639 | 228.3161 | 14.47104 | – |
| 2026 Apr 21 17:57 | 2026 Apr 15 21:13:35 | 81.1855 | 0.00104 | 10.9488 | 174.8639 | 228.3161 | 14.47104 | – |
| 2026 Apr 20 17:57 | 2026 Apr 15 21:13:35 | 81.1855 | 0.00104 | 10.9488 | 174.8639 | 228.3161 | 14.47104 | – |
| 2026 Apr 19 17:58 | 2026 Apr 15 21:13:35 | 81.1855 | 0.00104 | 10.9488 | 174.8639 | 228.3161 | 14.47104 | – |
| 2026 Apr 18 17:56 | 2026 Apr 09 04:13:45 | 81.1857 | 0.00099 | 11.4141 | 188.3727 | 228.3161 | 14.47104 | – |
| 2026 Apr 16 17:57 | 2026 Apr 09 04:13:45 | 81.1857 | 0.00099 | 11.4141 | 188.3727 | 228.3161 | 14.47104 | – |
| 2026 Apr 14 17:57 | 2026 Apr 09 04:13:45 | 81.1857 | 0.00099 | 11.4141 | 188.3727 | 228.3161 | 14.47104 | – |
| 2026 Apr 13 17:57 | 2026 Apr 09 04:13:45 | 81.1857 | 0.00099 | 11.4141 | 188.3727 | 228.3161 | 14.47104 | – |
| 2026 Apr 12 17:57 | 2026 Apr 07 22:21:09 | 81.1866 | 0.00099 | 11.5004 | 193.8019 | 228.3161 | 14.47104 | – |